createdAt,value
2018-01-31T01:52:38.882Z,7.27
2018-01-31T01:55:07.387Z,7.27
2018-01-31T01:57:35.794Z,7.97
2018-01-31T02:00:04.258Z,8.43
2018-01-31T02:02:32.691Z,7.47
2018-01-31T02:05:01.116Z,7.77
2018-01-31T02:07:29.555Z,6.93
2018-01-31T02:09:58.043Z,7.43
2018-01-31T02:12:26.433Z,7.33
2018-01-31T02:14:54.833Z,7.87
2018-01-31T02:17:23.359Z,8.07
2018-01-31T02:19:51.771Z,7.87
2018-01-31T02:22:20.212Z,7.47
2018-01-31T02:24:48.692Z,8.00
2018-01-31T02:27:17.127Z,8.00
2018-01-31T02:29:45.529Z,8.07
2018-01-31T02:32:14.135Z,8.07
2018-01-31T02:34:42.525Z,8.13
2018-01-31T02:37:10.922Z,8.47
2018-01-31T02:39:51.146Z,7.27
2018-01-31T02:42:19.559Z,8.27
2018-01-31T02:44:47.984Z,8.17
2018-01-31T02:47:16.414Z,8.43
2018-01-31T02:49:44.821Z,8.70
2018-01-31T02:52:13.233Z,8.00
2018-01-31T02:54:41.707Z,7.97
2018-01-31T02:57:10.109Z,8.37
2018-01-31T02:59:38.510Z,8.60
2018-01-31T03:02:06.953Z,8.80
2018-01-31T03:04:35.365Z,8.43
2018-01-31T03:07:03.774Z,8.00
2018-01-31T03:09:32.202Z,8.23
2018-01-31T03:12:00.609Z,8.03
2018-01-31T03:14:28.995Z,8.60
2018-01-31T03:16:57.454Z,8.57
2018-01-31T03:19:25.854Z,8.33
2018-01-31T03:21:54.265Z,9.20
2018-01-31T03:24:22.718Z,9.07
2018-01-31T03:26:51.134Z,8.63
2018-01-31T03:29:19.522Z,9.07
2018-01-31T03:31:47.977Z,8.90
2018-01-31T03:34:16.385Z,9.43
2018-01-31T03:36:44.799Z,9.13
2018-01-31T03:39:13.305Z,9.17
2018-01-31T03:41:41.707Z,9.00
2018-01-31T03:44:10.121Z,9.50
2018-01-31T03:46:38.561Z,10.00
2018-01-31T03:49:06.990Z,9.53
2018-01-31T03:51:35.396Z,9.93
2018-01-31T03:54:03.881Z,9.60
2018-01-31T03:56:32.294Z,9.87
2018-01-31T03:59:00.706Z,10.50
2018-01-31T04:01:29.178Z,10.20
2018-01-31T04:03:57.564Z,9.93
2018-01-31T04:06:25.964Z,10.97
2018-01-31T04:08:54.424Z,11.03
2018-01-31T04:11:22.845Z,10.93
2018-01-31T04:13:51.283Z,9.90
2018-01-31T04:16:19.714Z,11.07
2018-01-31T04:18:48.137Z,10.63
2018-01-31T04:21:16.582Z,11.33
2018-01-31T04:23:45.053Z,11.23
2018-01-31T04:26:13.456Z,10.03
2018-01-31T04:28:41.865Z,10.30
2018-01-31T04:31:10.319Z,11.27
2018-01-31T04:33:38.762Z,11.73
2018-01-31T04:36:07.241Z,10.67
2018-01-31T04:38:35.712Z,11.53
2018-01-31T04:41:04.103Z,11.10
2018-01-31T04:43:32.537Z,11.90
2018-01-31T04:46:01.010Z,11.70
2018-01-31T04:48:29.424Z,11.40
2018-01-31T04:50:57.851Z,12.20
2018-01-31T04:53:26.298Z,12.37
2018-01-31T04:55:54.694Z,12.63
2018-01-31T04:58:23.090Z,13.03
2018-01-31T05:00:51.548Z,12.30
2018-01-31T05:03:19.945Z,12.70
2018-01-31T05:05:48.361Z,13.10
2018-01-31T05:08:16.817Z,12.50
2018-01-31T05:10:45.243Z,12.30
2018-01-31T05:13:13.661Z,11.97
2018-01-31T05:15:42.108Z,12.03
2018-01-31T05:18:10.509Z,12.57
2018-01-31T05:20:38.936Z,12.97
2018-01-31T05:23:07.401Z,13.43
2018-01-31T05:25:35.823Z,12.47
2018-01-31T05:28:04.255Z,12.43
2018-01-31T05:30:32.699Z,13.13
2018-01-31T05:33:01.124Z,14.03
2018-01-31T05:35:29.557Z,14.50
2018-01-31T05:37:58.012Z,13.13
2018-01-31T05:40:26.420Z,13.67
2018-01-31T05:42:54.825Z,12.93
2018-01-31T05:45:23.265Z,14.43
2018-01-31T05:47:51.652Z,12.30
2018-01-31T05:50:20.059Z,12.77
2018-01-31T05:52:48.509Z,12.57
2018-01-31T05:55:16.901Z,13.13
2018-01-31T05:57:45.290Z,13.30
2018-01-31T06:00:13.732Z,14.67
2018-01-31T06:02:42.142Z,13.10
2018-01-31T06:05:10.569Z,13.13
2018-01-31T06:07:39.050Z,14.13
2018-01-31T06:10:07.533Z,12.90
2018-01-31T06:12:35.929Z,12.77
2018-01-31T06:15:04.402Z,11.13
2018-01-31T06:17:32.802Z,11.37
2018-01-31T06:20:01.210Z,11.17
2018-01-31T06:22:29.656Z,11.17
2018-01-31T06:24:58.062Z,11.30
2018-01-31T06:27:26.893Z,10.03
2018-01-31T06:29:55.344Z,9.63
2018-01-31T06:32:23.731Z,11.63
2018-01-31T06:34:52.143Z,10.07
2018-01-31T06:37:20.623Z,10.93
2018-01-31T06:39:49.030Z,10.60
2018-01-31T06:42:17.426Z,11.00
2018-01-31T06:44:45.870Z,10.17
2018-01-31T06:47:14.290Z,11.13
2018-01-31T06:49:42.692Z,9.80
2018-01-31T06:52:11.286Z,9.47
2018-01-31T06:54:39.678Z,9.53
2018-01-31T06:57:08.088Z,9.63
2018-01-31T06:59:36.513Z,8.90
2018-01-31T07:02:04.928Z,9.40
2018-01-31T07:04:33.340Z,9.43
2018-01-31T07:07:01.776Z,8.67
2018-01-31T07:09:31.154Z,8.73
2018-01-31T07:11:59.550Z,7.47
2018-01-31T07:14:27.961Z,8.00
2018-01-31T07:16:56.362Z,8.87
2018-01-31T07:19:24.781Z,9.03
2018-01-31T07:21:53.291Z,7.60
2018-01-31T07:24:21.717Z,8.27
2018-01-31T07:26:50.982Z,8.07
2018-01-31T07:29:19.439Z,8.80
2018-01-31T07:31:47.841Z,8.27
2018-01-31T07:34:16.249Z,6.93
2018-01-31T07:36:44.700Z,7.47
2018-01-31T07:39:13.089Z,6.47
2018-01-31T07:41:41.506Z,10.43
2018-01-31T07:44:09.950Z,10.17
2018-01-31T07:46:38.379Z,7.73
2018-01-31T07:49:06.773Z,8.90
2018-01-31T07:51:35.206Z,7.37
2018-01-31T07:54:03.650Z,6.90
2018-01-31T07:56:32.050Z,8.00
2018-01-31T07:59:00.676Z,6.93
2018-01-31T08:01:29.078Z,7.03
2018-01-31T08:03:57.499Z,5.17
2018-01-31T08:06:25.928Z,5.17
2018-01-31T08:08:54.330Z,4.87
2018-01-31T08:11:23.110Z,5.60
2018-01-31T08:13:51.579Z,5.20
2018-01-31T08:16:19.972Z,5.60
2018-01-31T08:18:48.406Z,5.03
2018-01-31T08:21:16.835Z,4.63
2018-01-31T08:23:45.229Z,4.47
2018-01-31T08:26:13.666Z,4.27
2018-01-31T08:28:42.152Z,4.73
2018-01-31T08:31:10.547Z,5.13
2018-01-31T08:33:38.937Z,5.00
2018-01-31T08:36:07.377Z,4.60
2018-01-31T08:38:35.802Z,4.00
2018-01-31T08:41:04.213Z,4.03
2018-01-31T08:43:32.747Z,5.27
2018-01-31T08:46:01.164Z,8.87
2018-01-31T08:48:29.559Z,3.70
2018-01-31T08:50:57.965Z,3.93
2018-01-31T08:53:26.348Z,3.37
2018-01-31T08:55:54.830Z,2.90
2018-01-31T08:58:23.286Z,3.73
2018-01-31T09:00:51.684Z,3.13
2018-01-31T09:03:20.061Z,5.03
2018-01-31T09:05:48.538Z,4.27
2018-01-31T09:08:16.976Z,4.43
2018-01-31T09:10:45.388Z,2.80
2018-01-31T09:13:13.862Z,2.90
2018-01-31T09:15:42.252Z,2.30
2018-01-31T09:18:10.663Z,2.13
2018-01-31T09:20:39.125Z,1.97
2018-01-31T09:23:07.528Z,2.03
2018-01-31T09:25:35.966Z,1.73
2018-01-31T09:28:04.398Z,1.70
2018-01-31T09:30:32.806Z,1.60
2018-01-31T09:33:01.213Z,1.80
2018-01-31T09:35:30.001Z,1.50
2018-01-31T09:37:58.385Z,2.43
2018-01-31T09:40:26.836Z,2.20
2018-01-31T09:42:55.310Z,1.33
2018-01-31T09:45:23.719Z,1.70
2018-01-31T09:47:52.151Z,1.50
2018-01-31T09:50:20.579Z,1.83
2018-01-31T09:52:48.996Z,2.70
2018-01-31T09:55:17.396Z,1.90
2018-01-31T09:57:45.833Z,1.40
2018-01-31T10:00:14.257Z,1.10
2018-01-31T10:02:42.674Z,1.70
2018-01-31T10:05:11.107Z,1.77
2018-01-31T10:07:39.496Z,1.80
2018-01-31T10:10:07.951Z,2.20
2018-01-31T10:12:36.390Z,1.00
2018-01-31T10:15:04.786Z,1.60
2018-01-31T10:17:33.182Z,0.90
2018-01-31T10:20:01.626Z,1.60
2018-01-31T10:22:30.036Z,0.80
2018-01-31T10:24:58.452Z,0.73
2018-01-31T10:27:26.890Z,0.93
2018-01-31T10:29:55.342Z,1.57
2018-01-31T10:32:23.753Z,1.40
2018-01-31T10:34:52.166Z,1.10
2018-01-31T10:37:20.552Z,1.20
2018-01-31T10:39:48.953Z,1.00
2018-01-31T10:42:17.426Z,0.70
2018-01-31T10:44:46.747Z,1.70
2018-01-31T10:47:15.176Z,1.37
2018-01-31T10:49:43.660Z,2.50
2018-01-31T10:52:12.074Z,4.90
2018-01-31T10:57:29.099Z,1.00
2018-01-31T10:59:37.338Z,0.60
2018-01-31T11:02:05.746Z,0.60
2018-01-31T11:04:35.125Z,0.70
2018-01-31T11:07:03.549Z,0.60
2018-01-31T11:09:31.949Z,0.50
2018-01-31T11:12:00.400Z,0.67
2018-01-31T11:14:28.790Z,0.57
2018-01-31T11:16:57.516Z,0.80
2018-01-31T11:19:26.009Z,0.77
2018-01-31T11:21:54.415Z,0.50
2018-01-31T11:24:22.809Z,0.67
2018-01-31T11:26:51.286Z,0.40
2018-01-31T11:29:19.724Z,0.80
2018-01-31T11:31:48.136Z,0.60
2018-01-31T11:34:16.592Z,0.50
2018-01-31T11:36:44.980Z,0.50
2018-01-31T11:39:13.394Z,0.70
2018-01-31T11:41:41.838Z,0.50
2018-01-31T11:44:10.241Z,0.70
2018-01-31T11:46:38.718Z,0.50
2018-01-31T11:49:07.159Z,0.60
2018-01-31T11:51:35.587Z,0.57
2018-01-31T11:54:04.009Z,0.53
2018-01-31T11:56:32.438Z,0.50
2018-01-31T11:59:00.821Z,0.60
2018-01-31T12:01:29.232Z,0.50
2018-01-31T12:03:57.685Z,0.57
2018-01-31T12:06:26.094Z,0.47
2018-01-31T12:08:54.506Z,0.50
2018-01-31T12:11:22.970Z,0.40
2018-01-31T12:17:04.594Z,0.53
2018-01-31T12:19:44.927Z,0.50
2018-01-31T12:22:23.123Z,0.47
2018-01-31T12:25:03.295Z,0.50
2018-01-31T12:27:43.646Z,0.50
2018-01-31T12:30:23.921Z,0.50
2018-01-31T12:33:04.940Z,0.50
2018-01-31T12:35:45.130Z,0.40
2018-01-31T12:38:25.516Z,0.50
2018-01-31T12:40:53.398Z,0.40
2018-01-31T12:43:21.265Z,0.60
2018-01-31T12:45:49.146Z,0.50
2018-01-31T12:48:29.337Z,0.40
2018-01-31T12:51:09.646Z,0.50
2018-01-31T12:53:49.944Z,0.60
2018-01-31T12:59:31.131Z,0.60
2018-01-31T13:02:11.307Z,0.50
2018-01-31T13:04:51.461Z,0.50
2018-01-31T13:10:32.742Z,0.50
2018-01-31T13:13:12.798Z,0.60
2018-01-31T13:15:52.937Z,0.60
2018-01-31T13:18:33.324Z,0.80
2018-01-31T13:24:30.500Z,4.13
2018-01-31T13:30:40.609Z,0.50
2018-01-31T13:33:25.731Z,0.60
2018-01-31T13:36:06.137Z,0.50
2018-01-31T13:38:46.395Z,0.50
2018-01-31T13:41:26.557Z,0.60
2018-01-31T13:44:06.754Z,0.80
2018-01-31T13:46:46.926Z,0.83
2018-01-31T13:49:27.148Z,0.70
2018-01-31T13:52:07.539Z,0.53
2018-01-31T13:54:47.747Z,0.63
2018-01-31T13:57:28.050Z,0.70
2018-01-31T14:03:16.908Z,0.80
2018-01-31T14:05:57.118Z,0.60
2018-01-31T14:08:37.321Z,0.83
2018-01-31T14:11:17.518Z,0.50
2018-01-31T14:13:58.224Z,0.60
2018-01-31T14:16:38.522Z,0.40
2018-01-31T14:19:18.924Z,0.50
2018-01-31T14:22:00.022Z,0.43
2018-01-31T14:24:40.202Z,0.70
2018-01-31T14:27:20.331Z,0.40
2018-01-31T14:30:00.523Z,0.50
2018-01-31T14:32:40.873Z,0.50
2018-01-31T14:35:21.203Z,0.60
2018-01-31T14:37:49.044Z,0.40
2018-01-31T14:40:16.931Z,0.40
2018-01-31T14:42:44.838Z,0.60
2018-01-31T14:45:12.698Z,0.50
2018-01-31T14:47:40.581Z,0.67
2018-01-31T14:50:08.507Z,0.53
2018-01-31T14:52:36.380Z,0.60
2018-01-31T14:55:04.258Z,0.50
2018-01-31T14:57:32.505Z,0.57
2018-01-31T15:00:00.350Z,0.50
2018-01-31T15:02:28.277Z,0.60
2018-01-31T15:04:56.190Z,0.70
2018-01-31T15:07:24.095Z,0.70
2018-01-31T15:09:51.963Z,0.90
2018-01-31T15:12:19.872Z,0.57
2018-01-31T15:14:47.723Z,1.70
2018-01-31T15:17:15.579Z,0.80
2018-01-31T15:19:43.461Z,0.57
2018-01-31T15:22:11.297Z,0.60
2018-01-31T15:24:39.145Z,0.60
2018-01-31T15:27:07.073Z,0.60
2018-01-31T15:29:34.918Z,0.60
2018-01-31T15:32:02.756Z,0.50
2018-01-31T15:34:30.648Z,0.90
2018-01-31T15:36:58.518Z,0.60
2018-01-31T15:39:26.369Z,0.50
2018-01-31T15:41:54.264Z,0.60
2018-01-31T15:44:22.106Z,0.70
2018-01-31T15:46:49.942Z,0.70
2018-01-31T15:49:17.852Z,0.70
2018-01-31T15:51:45.697Z,0.70
2018-01-31T15:54:13.545Z,0.60
2018-01-31T15:56:41.448Z,0.60
2018-01-31T15:59:09.290Z,0.60
2018-01-31T16:01:37.154Z,0.80
2018-01-31T16:04:05.068Z,0.50
2018-01-31T16:06:32.932Z,0.70
2018-01-31T16:09:00.781Z,0.80
2018-01-31T16:11:28.700Z,0.77
2018-01-31T16:13:56.545Z,0.70
2018-01-31T16:16:24.944Z,0.70
2018-01-31T16:22:00.191Z,0.80
2018-01-31T16:24:28.629Z,0.70
2018-01-31T16:26:57.010Z,0.70
2018-01-31T16:29:41.285Z,0.60
2018-01-31T16:32:21.455Z,0.70
2018-01-31T16:34:50.073Z,0.60
2018-01-31T16:37:18.477Z,0.50
2018-01-31T16:39:46.880Z,0.53
2018-01-31T16:42:15.504Z,0.60
2018-01-31T16:44:43.873Z,0.50
2018-01-31T16:47:12.242Z,0.57
2018-01-31T16:49:40.674Z,0.60
2018-01-31T16:52:09.098Z,0.60
2018-01-31T16:54:37.490Z,0.70
2018-01-31T16:57:05.927Z,0.87
2018-01-31T16:59:34.341Z,0.63
2018-01-31T17:02:02.750Z,0.70
2018-01-31T17:04:31.181Z,0.50
2018-01-31T17:06:59.580Z,0.70
2018-01-31T17:09:27.978Z,0.50
2018-01-31T17:11:56.410Z,1.87
2018-01-31T17:14:24.806Z,0.70
2018-01-31T17:16:53.208Z,0.60
2018-01-31T17:19:21.658Z,0.80
2018-01-31T17:21:50.053Z,0.70
2018-01-31T17:24:18.459Z,0.80
2018-01-31T17:26:46.905Z,0.80
2018-01-31T17:29:15.293Z,0.70
2018-01-31T17:31:43.693Z,0.80
2018-01-31T17:34:12.157Z,0.70
2018-01-31T17:36:40.594Z,0.90
2018-01-31T17:39:09.029Z,0.70
2018-01-31T17:41:37.501Z,0.90
2018-01-31T17:44:05.897Z,0.80
2018-01-31T17:46:34.283Z,0.90
2018-01-31T17:49:02.769Z,1.00
2018-01-31T17:51:31.237Z,1.00
2018-01-31T17:54:00.283Z,1.10
2018-01-31T17:56:28.737Z,1.00
2018-01-31T17:58:57.150Z,1.00
2018-01-31T18:01:25.530Z,1.00
2018-01-31T18:03:53.946Z,1.00
2018-01-31T18:06:22.364Z,1.00
2018-01-31T18:08:51.558Z,1.00
2018-01-31T18:11:20.000Z,0.90
2018-01-31T18:13:48.378Z,1.00
2018-01-31T18:16:16.782Z,1.00
2018-01-31T18:18:45.220Z,1.10
2018-01-31T18:21:13.620Z,1.10
2018-01-31T18:26:52.170Z,1.37
2018-01-31T18:29:25.871Z,0.90
2018-01-31T18:31:54.731Z,1.10
2018-01-31T18:34:23.167Z,0.87
2018-01-31T18:36:51.675Z,1.20
2018-01-31T18:39:20.134Z,1.30
2018-01-31T18:41:48.530Z,1.17
2018-01-31T18:44:16.954Z,1.30
2018-01-31T18:46:45.441Z,1.43
2018-01-31T18:49:13.909Z,1.10
2018-01-31T18:51:42.360Z,1.27
2018-01-31T18:54:10.826Z,1.10
2018-01-31T18:56:39.221Z,1.20
2018-01-31T18:59:11.197Z,1.27
2018-01-31T19:01:39.592Z,1.17
2018-01-31T19:04:08.005Z,1.20
2018-01-31T19:06:36.492Z,1.33
2018-01-31T19:09:04.976Z,1.30
2018-01-31T19:11:33.394Z,1.10
2018-01-31T19:14:01.946Z,1.30
2018-01-31T19:16:32.380Z,0.90
2018-01-31T19:19:00.806Z,1.30
2018-01-31T19:21:29.229Z,0.97
2018-01-31T19:23:57.747Z,0.60
2018-01-31T19:26:26.173Z,0.60
2018-01-31T19:28:54.638Z,0.60
2018-01-31T19:31:23.051Z,0.50
2018-01-31T19:33:51.462Z,0.70
2018-01-31T19:38:54.614Z,0.63
2018-01-31T19:41:23.047Z,0.60
2018-01-31T19:43:51.515Z,0.60
2018-01-31T19:46:19.956Z,0.87
2018-01-31T19:48:48.427Z,0.70
2018-01-31T19:51:17.384Z,1.00
2018-01-31T19:53:45.787Z,0.50
2018-01-31T19:56:14.262Z,0.60
2018-01-31T19:58:42.665Z,0.50
2018-01-31T20:01:11.055Z,0.60
2018-01-31T20:03:39.528Z,0.60
2018-01-31T20:06:07.988Z,0.60
2018-01-31T20:08:36.385Z,0.67
2018-01-31T20:11:04.837Z,0.60
2018-01-31T20:13:33.248Z,0.77
2018-01-31T20:16:01.662Z,0.70
2018-01-31T20:18:30.127Z,0.70
2018-01-31T20:20:58.525Z,0.63
2018-01-31T20:23:26.933Z,0.70
2018-01-31T20:25:55.361Z,0.70
2018-01-31T20:28:23.774Z,0.60
2018-01-31T20:30:52.163Z,0.73
2018-01-31T20:33:20.638Z,0.67
2018-01-31T20:35:49.077Z,0.80
2018-01-31T20:38:17.485Z,0.93
2018-01-31T20:40:45.923Z,0.93
2018-01-31T20:43:14.322Z,0.90
2018-01-31T20:45:42.768Z,1.20
2018-01-31T20:48:11.225Z,0.80
2018-01-31T20:50:39.614Z,0.70
2018-01-31T20:53:08.079Z,1.00
2018-01-31T20:55:36.538Z,0.90
2018-01-31T20:58:04.913Z,0.80
2018-01-31T21:00:33.320Z,0.70
2018-01-31T21:03:01.970Z,0.67
2018-01-31T21:05:30.367Z,0.70
2018-01-31T21:07:58.825Z,0.60
2018-01-31T21:10:27.245Z,0.63
2018-01-31T21:12:55.642Z,0.60
2018-01-31T21:15:24.119Z,0.60
2018-01-31T21:17:52.568Z,0.70
2018-01-31T21:20:20.970Z,0.70
2018-01-31T21:22:49.373Z,0.73
2018-01-31T21:25:17.802Z,0.60
2018-01-31T21:27:46.192Z,0.70
2018-01-31T21:30:14.594Z,0.70
2018-01-31T21:32:43.051Z,0.70
2018-01-31T21:35:12.022Z,0.80
2018-01-31T21:37:40.426Z,0.60
2018-01-31T21:40:08.902Z,0.60
2018-01-31T21:42:41.554Z,0.80
2018-01-31T21:45:10.000Z,0.70
2018-01-31T21:47:38.426Z,0.70
2018-01-31T21:50:06.825Z,0.70
2018-01-31T21:52:39.684Z,0.60
2018-01-31T21:55:08.084Z,0.90
2018-01-31T21:57:48.123Z,0.80
2018-01-31T22:00:16.523Z,0.77
2018-01-31T22:02:44.934Z,0.70
2018-01-31T22:05:13.370Z,0.80
2018-01-31T22:07:41.769Z,0.90
2018-01-31T22:10:10.183Z,0.80
2018-01-31T22:12:38.602Z,0.87
2018-01-31T22:15:07.024Z,0.80
2018-01-31T22:17:35.438Z,0.80
2018-01-31T22:20:03.889Z,0.80
2018-01-31T22:22:32.306Z,0.90
2018-01-31T22:25:00.695Z,0.90
2018-01-31T22:27:29.155Z,0.97
2018-01-31T22:29:57.570Z,1.00
2018-01-31T22:32:25.965Z,1.30
2018-01-31T22:34:54.392Z,0.90
2018-01-31T22:37:22.784Z,1.00
2018-01-31T22:39:51.168Z,1.03
2018-01-31T22:42:19.611Z,1.20
2018-01-31T22:44:48.014Z,1.40
2018-01-31T22:47:16.403Z,1.33
2018-01-31T22:49:44.830Z,1.40
2018-01-31T22:52:13.232Z,1.50
2018-01-31T22:54:41.631Z,1.50
2018-01-31T22:57:10.134Z,1.60
2018-01-31T22:59:38.529Z,2.00
2018-01-31T23:02:06.981Z,1.90
2018-01-31T23:04:35.427Z,1.70
2018-01-31T23:07:03.821Z,2.00
2018-01-31T23:09:32.216Z,1.80
2018-01-31T23:12:06.104Z,1.87
2018-01-31T23:14:40.108Z,1.77
2018-01-31T23:17:08.615Z,1.77
2018-01-31T23:19:37.006Z,2.00
2018-01-31T23:22:05.399Z,1.90
2018-01-31T23:24:33.890Z,2.13
2018-01-31T23:27:02.276Z,1.90
2018-01-31T23:32:22.017Z,2.57
2018-01-31T23:34:50.421Z,2.30
2018-01-31T23:37:18.830Z,2.00
2018-01-31T23:39:47.262Z,2.87
2018-01-31T23:42:15.656Z,2.50
2018-01-31T23:44:44.038Z,2.70
2018-01-31T23:47:12.514Z,2.40
2018-01-31T23:49:40.967Z,2.80
2018-01-31T23:52:09.366Z,2.90
2018-01-31T23:54:37.837Z,2.93
2018-01-31T23:57:06.226Z,3.40
2018-01-31T23:59:34.667Z,2.70
